Terminal Aerodrome Forecast
Issued by NWS

Home | Current Version | Previous Version | Graphics & Text | Print | Product List | Glossary On
Versions: 1 2 3 4 5 6 7 8 9 10 11 12 13
326
FTUS43 KTOP 060534
TAFMHK
TAF
KMHK 060534Z 0606/0706 26003KT P6SM FEW025 BKN120
     FM061700 23010KT P6SM BKN250
     FM070000 22006KT P6SM SCT250=

USA.gov is the U.S. government's official web portal to all federal, state and local government web resources and services.